EZY343 EGPH-EGAC
Flight info
| Callsign | EZY343 |
|---|---|
| Flight time | 0h 32m |
| Altitude | 22000 |
| Route | TLA DCT TRN P600 BLACA DCT MAGEE |
| Aircraft | A320/M-SDE3FGHIRWY/LB1 |
Departure
| Time | 2026-04-20 22:17 |
|---|---|
| Airport | Edinburgh Airport (EGPH) |
Arrival
| Time | 2026-04-20 22:50 |
|---|---|
| Airport | George Best Belfast City Airport (EGAC) |
| Time | Latitude | Longitude | Altitude | Speed | Heading |
|---|---|---|---|---|---|
| 2026-04-20 21:50 | 55.94878 | -3.36545 | 107 ft | 0 kts | 149° |
| 2026-04-20 22:09 | 55.94894 | -3.36562 | 106 ft | 4 kts | 149° |
| 2026-04-20 22:10 | 55.94918 | -3.36583 | 106 ft | 4 kts | 166° |
| 2026-04-20 22:10 | 55.94943 | -3.36586 | 106 ft | 4 kts | 203° |
| 2026-04-20 22:10 | 55.94956 | -3.36569 | 106 ft | 1 kts | 239° |
| 2026-04-20 22:10 | 55.94958 | -3.36564 | 106 ft | 0 kts | 239° |
| 2026-04-20 22:12 | 55.94952 | -3.36581 | 106 ft | 5 kts | 239° |
| 2026-04-20 22:12 | 55.94923 | -3.36667 | 107 ft | 11 kts | 239° |
| 2026-04-20 22:12 | 55.94912 | -3.36818 | 106 ft | 14 kts | 305° |
| 2026-04-20 22:13 | 55.94894 | -3.36984 | 104 ft | 16 kts | 235° |
| 2026-04-20 22:13 | 55.94835 | -3.37157 | 105 ft | 17 kts | 239° |
| 2026-04-20 22:13 | 55.94773 | -3.37344 | 107 ft | 16 kts | 238° |
| 2026-04-20 22:13 | 55.94717 | -3.37507 | 110 ft | 15 kts | 239° |
| 2026-04-20 22:14 | 55.94669 | -3.37650 | 113 ft | 12 kts | 239° |
| 2026-04-20 22:14 | 55.94629 | -3.37767 | 114 ft | 11 kts | 237° |
| 2026-04-20 22:14 | 55.94588 | -3.37889 | 112 ft | 12 kts | 240° |
| 2026-04-20 22:14 | 55.94546 | -3.38015 | 112 ft | 12 kts | 238° |
| 2026-04-20 22:15 | 55.94490 | -3.38178 | 110 ft | 19 kts | 239° |
| 2026-04-20 22:15 | 55.94428 | -3.38359 | 113 ft | 17 kts | 238° |
| 2026-04-20 22:15 | 55.94361 | -3.38558 | 117 ft | 20 kts | 238° |
| 2026-04-20 22:15 | 55.94290 | -3.38768 | 119 ft | 17 kts | 239° |
| 2026-04-20 22:16 | 55.94336 | -3.38922 | 120 ft | 17 kts | 327° |
| 2026-04-20 22:16 | 55.94434 | -3.38912 | 119 ft | 15 kts | 54° |
| 2026-04-20 22:16 | 55.94500 | -3.38720 | 115 ft | 30 kts | 58° |
| 2026-04-20 22:16 | 55.94741 | -3.38012 | 117 ft | 102 kts | 59° |
| 2026-04-20 22:17 | 55.95217 | -3.36605 | 108 ft | 159 kts | 59° |
| 2026-04-20 22:17 | 55.95829 | -3.34763 | 529 ft | 174 kts | 58° |
| 2026-04-20 22:17 | 55.96643 | -3.33164 | 1214 ft | 181 kts | 41° |
| 2026-04-20 22:17 | 55.97641 | -3.31582 | 1583 ft | 203 kts | 41° |
| 2026-04-20 22:18 | 55.98763 | -3.29800 | 1975 ft | 228 kts | 41° |
| 2026-04-20 22:18 | 56.00009 | -3.27812 | 2468 ft | 252 kts | 41° |
| 2026-04-20 22:18 | 56.01357 | -3.25650 | 3172 ft | 265 kts | 42° |
| 2026-04-20 22:18 | 56.02742 | -3.23418 | 4087 ft | 271 kts | 42° |
| 2026-04-20 22:19 | 56.04120 | -3.21155 | 4976 ft | 276 kts | 46° |
| 2026-04-20 22:19 | 56.05108 | -3.18207 | 5408 ft | 280 kts | 76° |
| 2026-04-20 22:19 | 56.05200 | -3.14751 | 5536 ft | 279 kts | 95° |
| 2026-04-20 22:19 | 56.04923 | -3.11328 | 5550 ft | 278 kts | 109° |
| 2026-04-20 22:20 | 56.03985 | -3.08339 | 5556 ft | 277 kts | 131° |
| 2026-04-20 22:20 | 56.02542 | -3.06085 | 5559 ft | 276 kts | 145° |
| 2026-04-20 22:20 | 56.00989 | -3.04043 | 5635 ft | 280 kts | 143° |
| 2026-04-20 22:20 | 55.99433 | -3.01950 | 6524 ft | 281 kts | 145° |
| 2026-04-20 22:21 | 55.97776 | -3.00170 | 7374 ft | 284 kts | 156° |
| 2026-04-20 22:21 | 55.95859 | -2.99387 | 8147 ft | 287 kts | 182° |
| 2026-04-20 22:21 | 55.93939 | -3.00296 | 8903 ft | 290 kts | 206° |
| 2026-04-20 22:21 | 55.92099 | -3.01853 | 9673 ft | 294 kts | 205° |
| 2026-04-20 22:22 | 55.90221 | -3.03379 | 10258 ft | 304 kts | 204° |
| 2026-04-20 22:22 | 55.88217 | -3.04973 | 10450 ft | 327 kts | 204° |
| 2026-04-20 22:22 | 55.86068 | -3.06674 | 10587 ft | 349 kts | 204° |
| 2026-04-20 22:22 | 55.83794 | -3.08477 | 10842 ft | 364 kts | 204° |
| 2026-04-20 22:23 | 55.81458 | -3.10334 | 11354 ft | 370 kts | 204° |
| 2026-04-20 22:23 | 55.79126 | -3.12187 | 11901 ft | 374 kts | 204° |
| 2026-04-20 22:23 | 55.76737 | -3.14087 | 12444 ft | 378 kts | 204° |
| 2026-04-20 22:23 | 55.74329 | -3.15997 | 12962 ft | 381 kts | 204° |
| 2026-04-20 22:24 | 55.71897 | -3.17924 | 13461 ft | 384 kts | 204° |
| 2026-04-20 22:24 | 55.69447 | -3.19873 | 13937 ft | 388 kts | 204° |
| 2026-04-20 22:24 | 55.66978 | -3.21836 | 14391 ft | 391 kts | 204° |
| 2026-04-20 22:24 | 55.64486 | -3.23813 | 14824 ft | 394 kts | 204° |
| 2026-04-20 22:25 | 55.61976 | -3.25795 | 15237 ft | 397 kts | 204° |
| 2026-04-20 22:25 | 55.59482 | -3.27759 | 15623 ft | 399 kts | 204° |
| 2026-04-20 22:25 | 55.56935 | -3.29763 | 15996 ft | 402 kts | 204° |
| 2026-04-20 22:25 | 55.54419 | -3.31945 | 16340 ft | 404 kts | 211° |
| 2026-04-20 22:26 | 55.52185 | -3.34963 | 16672 ft | 407 kts | 224° |
| 2026-04-20 22:26 | 55.50370 | -3.38793 | 16989 ft | 409 kts | 237° |
| 2026-04-20 22:26 | 55.49063 | -3.43252 | 17289 ft | 411 kts | 249° |
| 2026-04-20 22:27 | 55.47701 | -3.53095 | 17846 ft | 415 kts | 257° |
| 2026-04-20 22:27 | 55.47095 | -3.58015 | 18105 ft | 417 kts | 257° |
| 2026-04-20 22:27 | 55.46471 | -3.63021 | 18360 ft | 419 kts | 257° |
| 2026-04-20 22:27 | 55.45836 | -3.68041 | 18605 ft | 421 kts | 257° |
| 2026-04-20 22:28 | 55.45191 | -3.73085 | 18843 ft | 423 kts | 257° |
| 2026-04-20 22:28 | 55.44542 | -3.78138 | 19072 ft | 424 kts | 257° |
| 2026-04-20 22:28 | 55.43891 | -3.83223 | 19291 ft | 426 kts | 257° |
| 2026-04-20 22:28 | 55.43241 | -3.88318 | 19497 ft | 428 kts | 257° |
| 2026-04-20 22:29 | 55.42587 | -3.93435 | 19694 ft | 429 kts | 257° |
| 2026-04-20 22:29 | 55.41928 | -3.98568 | 19883 ft | 431 kts | 257° |
| 2026-04-20 22:29 | 55.41262 | -4.03712 | 20066 ft | 432 kts | 257° |
| 2026-04-20 22:29 | 55.40600 | -4.08799 | 20238 ft | 433 kts | 257° |
| 2026-04-20 22:30 | 55.39924 | -4.13985 | 20409 ft | 435 kts | 257° |
| 2026-04-20 22:30 | 55.39251 | -4.19178 | 20569 ft | 436 kts | 257° |
| 2026-04-20 22:30 | 55.38574 | -4.24378 | 20723 ft | 437 kts | 257° |
| 2026-04-20 22:30 | 55.37890 | -4.29594 | 20870 ft | 438 kts | 257° |
| 2026-04-20 22:31 | 55.37200 | -4.34817 | 21013 ft | 439 kts | 257° |
| 2026-04-20 22:31 | 55.36504 | -4.40056 | 21149 ft | 440 kts | 257° |
| 2026-04-20 22:31 | 55.35804 | -4.45307 | 21282 ft | 442 kts | 256° |
| 2026-04-20 22:31 | 55.35111 | -4.50498 | 21408 ft | 443 kts | 256° |
| 2026-04-20 22:32 | 55.34405 | -4.55765 | 21534 ft | 443 kts | 256° |
| 2026-04-20 22:32 | 55.33694 | -4.61042 | 21658 ft | 444 kts | 256° |
| 2026-04-20 22:32 | 55.32964 | -4.66311 | 21790 ft | 444 kts | 253° |
| 2026-04-20 22:32 | 55.31855 | -4.71362 | 21961 ft | 444 kts | 243° |
| 2026-04-20 22:33 | 55.30234 | -4.75973 | 22010 ft | 446 kts | 232° |
| 2026-04-20 22:33 | 55.28138 | -4.79993 | 22009 ft | 449 kts | 222° |
| 2026-04-20 22:33 | 55.25636 | -4.83288 | 22009 ft | 452 kts | 211° |
| 2026-04-20 22:33 | 55.22846 | -4.85865 | 22012 ft | 455 kts | 206° |
| 2026-04-20 22:34 | 55.20006 | -4.88345 | 21971 ft | 458 kts | 206° |
| 2026-04-20 22:34 | 55.17169 | -4.90826 | 21677 ft | 466 kts | 206° |
| 2026-04-20 22:34 | 55.14266 | -4.93370 | 20876 ft | 465 kts | 207° |
| 2026-04-20 22:34 | 55.11390 | -4.95890 | 20119 ft | 459 kts | 207° |
| 2026-04-20 22:35 | 55.08551 | -4.98371 | 19381 ft | 454 kts | 206° |
| 2026-04-20 22:35 | 55.05743 | -5.00817 | 18673 ft | 448 kts | 206° |
| 2026-04-20 22:35 | 55.02980 | -5.03219 | 17992 ft | 442 kts | 206° |
| 2026-04-20 22:35 | 55.00250 | -5.05589 | 17355 ft | 435 kts | 206° |
| 2026-04-20 22:36 | 54.97599 | -5.07884 | 16755 ft | 428 kts | 206° |
| 2026-04-20 22:36 | 54.94956 | -5.10173 | 16168 ft | 421 kts | 206° |
| 2026-04-20 22:36 | 54.92391 | -5.12545 | 15603 ft | 414 kts | 212° |
| 2026-04-20 22:36 | 54.90138 | -5.15581 | 15045 ft | 408 kts | 224° |
| 2026-04-20 22:37 | 54.88287 | -5.19261 | 14492 ft | 402 kts | 234° |
| 2026-04-20 22:37 | 54.86961 | -5.23544 | 13942 ft | 406 kts | 249° |
| 2026-04-20 22:37 | 54.85999 | -5.28159 | 13391 ft | 406 kts | 251° |
| 2026-04-20 22:37 | 54.85085 | -5.32784 | 12839 ft | 403 kts | 251° |
| 2026-04-20 22:38 | 54.84182 | -5.37368 | 12288 ft | 399 kts | 251° |
| 2026-04-20 22:38 | 54.83300 | -5.41845 | 11745 ft | 396 kts | 251° |
| 2026-04-20 22:38 | 54.82415 | -5.46337 | 11195 ft | 392 kts | 251° |
| 2026-04-20 22:38 | 54.81536 | -5.50787 | 10644 ft | 388 kts | 251° |
| 2026-04-20 22:39 | 54.80668 | -5.55186 | 10093 ft | 382 kts | 251° |
| 2026-04-20 22:39 | 54.79811 | -5.59505 | 9543 ft | 375 kts | 250° |
| 2026-04-20 22:39 | 54.78845 | -5.63650 | 9080 ft | 366 kts | 247° |
| 2026-04-20 22:39 | 54.77839 | -5.67595 | 8853 ft | 350 kts | 242° |
| 2026-04-20 22:40 | 54.76692 | -5.71162 | 8630 ft | 337 kts | 240° |
| 2026-04-20 22:40 | 54.75542 | -5.74616 | 8405 ft | 325 kts | 240° |
| 2026-04-20 22:40 | 54.74380 | -5.77900 | 8180 ft | 315 kts | 233° |
| 2026-04-20 22:40 | 54.73008 | -5.80777 | 7955 ft | 305 kts | 229° |
| 2026-04-20 22:41 | 54.71634 | -5.83510 | 7729 ft | 297 kts | 229° |
| 2026-04-20 22:41 | 54.70297 | -5.86159 | 7503 ft | 289 kts | 229° |
| 2026-04-20 22:41 | 54.68991 | -5.88742 | 7278 ft | 284 kts | 229° |
| 2026-04-20 22:41 | 54.67693 | -5.91295 | 7053 ft | 282 kts | 227° |
| 2026-04-20 22:42 | 54.66213 | -5.93492 | 6828 ft | 280 kts | 217° |
| 2026-04-20 22:42 | 54.64662 | -5.95452 | 6605 ft | 279 kts | 216° |
| 2026-04-20 22:42 | 54.63087 | -5.97409 | 6379 ft | 278 kts | 216° |
| 2026-04-20 22:42 | 54.61519 | -5.99354 | 6153 ft | 277 kts | 216° |
| 2026-04-20 22:43 | 54.59955 | -6.01290 | 5926 ft | 276 kts | 216° |
| 2026-04-20 22:43 | 54.58397 | -6.03219 | 5701 ft | 275 kts | 216° |
| 2026-04-20 22:43 | 54.56859 | -6.05120 | 5474 ft | 268 kts | 216° |
| 2026-04-20 22:43 | 54.55368 | -6.06964 | 5249 ft | 260 kts | 216° |
| 2026-04-20 22:44 | 54.53919 | -6.08752 | 5022 ft | 252 kts | 216° |
| 2026-04-20 22:44 | 54.52512 | -6.10489 | 4796 ft | 245 kts | 216° |
| 2026-04-20 22:44 | 54.51051 | -6.11948 | 4398 ft | 241 kts | 198° |
| 2026-04-20 22:44 | 54.49453 | -6.12256 | 4085 ft | 231 kts | 173° |
| 2026-04-20 22:45 | 54.47958 | -6.11407 | 3819 ft | 227 kts | 148° |
| 2026-04-20 22:45 | 54.46915 | -6.09483 | 3572 ft | 219 kts | 114° |
| 2026-04-20 22:45 | 54.46697 | -6.06957 | 3430 ft | 214 kts | 80° |
| 2026-04-20 22:45 | 54.47301 | -6.04677 | 3258 ft | 211 kts | 46° |
| 2026-04-20 22:46 | 54.48440 | -6.03123 | 3025 ft | 210 kts | 33° |
| 2026-04-20 22:46 | 54.49647 | -6.01726 | 2749 ft | 207 kts | 33° |
| 2026-04-20 22:46 | 54.50795 | -6.00376 | 2509 ft | 191 kts | 34° |
| 2026-04-20 22:46 | 54.51849 | -5.99127 | 2242 ft | 177 kts | 34° |
| 2026-04-20 22:47 | 54.52825 | -5.97966 | 2018 ft | 166 kts | 34° |
| 2026-04-20 22:47 | 54.53740 | -5.96878 | 1801 ft | 158 kts | 34° |
| 2026-04-20 22:47 | 54.54635 | -5.95813 | 1594 ft | 155 kts | 34° |
| 2026-04-20 22:47 | 54.55518 | -5.94762 | 1394 ft | 154 kts | 34° |
| 2026-04-20 22:48 | 54.56394 | -5.93718 | 1187 ft | 153 kts | 34° |
| 2026-04-20 22:48 | 54.57265 | -5.92680 | 988 ft | 152 kts | 34° |
| 2026-04-20 22:48 | 54.58133 | -5.91645 | 786 ft | 151 kts | 34° |
| 2026-04-20 22:48 | 54.58998 | -5.90614 | 590 ft | 151 kts | 34° |
| 2026-04-20 22:49 | 54.59862 | -5.89591 | 382 ft | 151 kts | 34° |
| 2026-04-20 22:49 | 54.60709 | -5.88572 | 174 ft | 150 kts | 34° |
| 2026-04-20 22:49 | 54.61564 | -5.87566 | 22 ft | 142 kts | 34° |
| 2026-04-20 22:49 | 54.62231 | -5.86756 | 22 ft | 83 kts | 33° |
| 2026-04-20 22:50 | 54.62446 | -5.86548 | 22 ft | 19 kts | 24° |
| 2026-04-20 22:50 | 54.62470 | -5.86456 | 21 ft | 2 kts | 174° |
| 2026-04-20 22:50 | 54.62440 | -5.86483 | 21 ft | 10 kts | 212° |
| 2026-04-20 22:50 | 54.62359 | -5.86591 | 22 ft | 20 kts | 219° |
| 2026-04-20 22:51 | 54.62226 | -5.86756 | 22 ft | 25 kts | 213° |
| 2026-04-20 22:51 | 54.62079 | -5.86926 | 20 ft | 26 kts | 214° |
| 2026-04-20 22:51 | 54.61933 | -5.87114 | 20 ft | 24 kts | 215° |
| 2026-04-20 22:51 | 54.61815 | -5.87129 | 20 ft | 15 kts | 130° |
| 2026-04-20 22:52 | 54.61752 | -5.86995 | 21 ft | 14 kts | 154° |
| 2026-04-20 22:52 | 54.61668 | -5.87055 | 21 ft | 14 kts | 217° |
| 2026-04-20 22:52 | 54.61590 | -5.87154 | 21 ft | 14 kts | 216° |
| 2026-04-20 22:52 | 54.61540 | -5.87174 | 21 ft | 4 kts | 162° |
| 2026-04-20 22:53 | 54.61516 | -5.87155 | 21 ft | 0 kts | 155° |